createdAt,value
2018-02-13T00:00:27.837Z,0.35
2018-02-13T00:01:29.137Z,0.34
2018-02-13T00:02:29.939Z,0.31
2018-02-13T00:03:31.940Z,0.26
2018-02-13T00:04:32.600Z,0.28
2018-02-13T00:05:33.630Z,0.37
2018-02-13T00:06:34.109Z,0.37
2018-02-13T00:07:34.475Z,0.37
2018-02-13T00:08:35.944Z,0.38
2018-02-13T00:09:37.170Z,0.28
2018-02-13T00:10:38.039Z,0.43
2018-02-13T00:11:40.594Z,0.37
2018-02-13T00:12:40.108Z,0.35
2018-02-13T00:13:42.152Z,0.35
2018-02-13T00:14:42.130Z,0.32
2018-02-13T00:15:44.727Z,0.34
2018-02-13T00:16:44.222Z,0.32
2018-02-13T00:17:45.488Z,0.15
2018-02-13T00:18:46.740Z,0.31
2018-02-13T00:19:46.700Z,0.31
2018-02-13T00:20:47.887Z,0.31
2018-02-13T00:21:50.175Z,0.45
2018-02-13T00:22:49.340Z,0.54
2018-02-13T00:23:50.737Z,0.43
2018-02-13T00:24:52.749Z,0.45
2018-02-13T00:25:55.227Z,0.43
2018-02-13T00:26:54.203Z,0.38
2018-02-13T00:27:55.066Z,0.45
2018-02-13T00:28:56.475Z,0.4
2018-02-13T00:29:57.292Z,0.43
2018-02-13T00:30:58.638Z,0.43
2018-02-13T00:31:59.314Z,0.32
2018-02-13T00:32:59.795Z,0.32
2018-02-13T00:34:00.996Z,0.26
2018-02-13T00:35:02.323Z,0.34
2018-02-13T00:36:04.042Z,0.41
2018-02-13T00:37:04.410Z,0.43
2018-02-13T00:38:05.007Z,0.37
2018-02-13T00:39:05.679Z,0.43
2018-02-13T00:40:06.329Z,0.43
2018-02-13T00:41:07.323Z,0.28
2018-02-13T00:42:09.702Z,0.34
2018-02-13T00:43:09.914Z,0.09
2018-02-13T00:44:11.357Z,0.12
2018-02-13T00:45:11.753Z,0.12
2018-02-13T00:46:13.570Z,0.09
2018-02-13T00:47:15.073Z,0.13
2018-02-13T00:48:15.256Z,0.13
2018-02-13T00:49:15.844Z,0.38
2018-02-13T00:50:16.544Z,0.32
2018-02-13T00:51:18.233Z,0.21
2018-02-13T00:52:18.562Z,0.19
2018-02-13T00:53:19.873Z,0.15
2018-02-13T00:54:21.196Z,0.35
2018-02-13T00:55:22.606Z,0.34
2018-02-13T00:56:23.830Z,0.34
2018-02-13T00:57:23.964Z,0.34
2018-02-13T00:58:24.926Z,0.32
2018-02-13T00:59:26.134Z,0.29
2018-02-13T01:00:26.402Z,0.25
2018-02-13T01:01:27.106Z,0.23
2018-02-13T01:02:28.515Z,0.31
2018-02-13T01:03:30.253Z,0.16
2018-02-13T01:04:31.145Z,0.21
2018-02-13T01:05:32.474Z,0.37
2018-02-13T01:06:33.484Z,0.37
2018-02-13T01:07:34.031Z,0.28
2018-02-13T01:08:34.760Z,0.26
2018-02-13T01:09:35.811Z,0.26
2018-02-13T01:10:38.540Z,0.37
2018-02-13T01:11:37.383Z,0.41
2018-02-13T01:12:39.032Z,0.28
2018-02-13T01:13:40.015Z,0.45
2018-02-13T01:14:41.485Z,0.6
2018-02-13T01:15:42.726Z,0.38
2018-02-13T01:16:44.748Z,0.43
2018-02-13T01:17:43.758Z,0.53
2018-02-13T01:18:45.372Z,0.43
2018-02-13T01:19:46.146Z,0.35
2018-02-13T01:20:47.598Z,0.37
2018-02-13T01:21:49.063Z,0.35
2018-02-13T01:22:49.103Z,0.35
2018-02-13T01:23:49.448Z,0.26
2018-02-13T01:24:52.547Z,0.29
2018-02-13T01:25:51.646Z,0.21
2018-02-13T01:26:53.186Z,0.31
2018-02-13T01:27:53.198Z,0.34
2018-02-13T01:28:54.380Z,0.26
2018-02-13T01:29:56.496Z,0.32
2018-02-13T01:30:56.903Z,0.22
2018-02-13T01:31:57.883Z,0.43
2018-02-13T01:32:58.952Z,0.38
2018-02-13T01:34:00.678Z,0.43
2018-02-13T01:35:02.488Z,0.34
2018-02-13T01:36:02.599Z,0.35
2018-02-13T01:37:04.214Z,0.43
2018-02-13T01:38:03.582Z,0.43
2018-02-13T01:39:04.612Z,0.31
2018-02-13T01:40:06.503Z,0.26
2018-02-13T01:41:06.498Z,0.31
2018-02-13T01:42:08.276Z,0.21
2018-02-13T01:43:09.161Z,0.31
2018-02-13T01:44:10.152Z,0.26
2018-02-13T01:45:11.467Z,0.22
2018-02-13T01:46:12.252Z,0.15
2018-02-13T01:47:14.076Z,0.16
2018-02-13T01:48:14.826Z,0.31
2018-02-13T01:49:14.825Z,0.21
2018-02-13T01:50:16.812Z,0.25
2018-02-13T01:51:17.681Z,0.31
2018-02-13T01:52:18.578Z,0.26
2018-02-13T01:53:19.238Z,0.31
2018-02-13T01:54:19.610Z,0.21
2018-02-13T01:55:21.508Z,0.25
2018-02-13T01:56:21.508Z,0.31
2018-02-13T01:57:23.117Z,0.31
2018-02-13T01:58:24.090Z,0.29
2018-02-13T01:59:25.168Z,0.23
2018-02-13T02:00:26.426Z,0.38
2018-02-13T02:01:27.137Z,0.29
2018-02-13T02:02:28.007Z,0.32
2018-02-13T02:03:28.678Z,0.31
2018-02-13T02:04:31.110Z,0.31
2018-02-13T02:05:31.109Z,0.26
2018-02-13T02:06:33.014Z,0.43
2018-02-13T02:07:32.692Z,0.15
2018-02-13T02:08:34.558Z,0.38
2018-02-13T02:09:35.806Z,0.37
2018-02-13T02:10:37.471Z,0.38
2018-02-13T02:11:37.528Z,0.28
2018-02-13T02:12:37.030Z,0.28
2018-02-13T02:13:39.054Z,0.41
2018-02-13T02:14:39.484Z,0.26
2018-02-13T02:15:41.478Z,0.26
2018-02-13T02:16:41.785Z,0.37
2018-02-13T02:17:43.233Z,0.37
2018-02-13T02:18:44.105Z,0.45
2018-02-13T02:19:45.206Z,0.31
2018-02-13T02:20:47.178Z,0.32
2018-02-13T02:21:47.246Z,0.35
2018-02-13T02:22:48.541Z,0.29
2018-02-13T02:23:50.089Z,0.26
2018-02-13T02:24:49.718Z,0.31
2018-02-13T02:25:51.753Z,0.29
2018-02-13T02:26:51.665Z,0.31
2018-02-13T02:27:53.034Z,0.26
2018-02-13T02:28:53.359Z,0.26
2018-02-13T02:29:55.036Z,0.31
2018-02-13T02:30:56.624Z,0.26
2018-02-13T02:31:56.378Z,0.26
2018-02-13T02:32:59.358Z,0.28
2018-02-13T02:34:00.412Z,0.45
2018-02-13T02:35:00.800Z,0.57
2018-02-13T02:36:02.079Z,0.47
2018-02-13T02:37:04.053Z,0.38
2018-02-13T02:38:02.649Z,0.41
2018-02-13T02:39:03.580Z,0.41
2018-02-13T02:40:05.545Z,0.4
2018-02-13T02:41:06.655Z,0.4
2018-02-13T02:42:06.970Z,0.45
2018-02-13T02:43:09.306Z,0.45
2018-02-13T02:44:08.396Z,0.47
2018-02-13T02:45:09.268Z,0.44
2018-02-13T02:46:10.740Z,0.44
2018-02-13T02:47:11.974Z,0.54
2018-02-13T02:48:12.955Z,0.45
2018-02-13T02:49:14.595Z,0.6
2018-02-13T02:50:14.891Z,0.66
2018-02-13T02:51:16.932Z,0.54
2018-02-13T02:52:18.174Z,0.54
2018-02-13T02:53:18.885Z,0.53
2018-02-13T02:54:19.288Z,0.43
2018-02-13T02:55:19.595Z,0.45
2018-02-13T02:56:20.827Z,0.6
2018-02-13T02:57:23.573Z,0.45
2018-02-13T02:58:22.236Z,0.51
2018-02-13T02:59:23.207Z,0.51
2018-02-13T03:00:24.272Z,0.47
2018-02-13T03:01:25.527Z,0.44
2018-02-13T03:02:26.192Z,0.59
2018-02-13T03:03:28.841Z,0.4
2018-02-13T03:04:28.790Z,0.53
2018-02-13T03:05:30.511Z,0.56
2018-02-13T03:06:32.113Z,0.66
2018-02-13T03:07:31.920Z,0.5
2018-02-13T03:08:32.680Z,0.54
2018-02-13T03:09:33.482Z,0.54
2018-02-13T03:10:34.562Z,0.57
2018-02-13T03:11:36.670Z,0.54
2018-02-13T03:12:38.558Z,0.51
2018-02-13T03:13:37.511Z,0.53
2018-02-13T03:14:38.631Z,0.57
2018-02-13T03:15:39.487Z,0.57
2018-02-13T03:16:42.322Z,0.47
2018-02-13T03:17:42.818Z,0.35
2018-02-13T03:18:43.226Z,0.38
2018-02-13T03:19:43.365Z,0.48
2018-02-13T03:20:45.236Z,0.44
2018-02-13T03:21:45.624Z,0.59
2018-02-13T03:22:47.358Z,0.56
2018-02-13T03:23:48.065Z,0.44
2018-02-13T03:24:49.659Z,0.54
2018-02-13T03:25:49.865Z,0.5
2018-02-13T03:26:52.039Z,0.53
2018-02-13T03:27:52.997Z,0.44
2018-02-13T03:28:53.891Z,0.54
2018-02-13T03:29:53.653Z,0.57
2018-02-13T03:30:55.871Z,0.54
2018-02-13T03:32:22.177Z,0.59
2018-02-13T03:32:57.089Z,0.5
2018-02-13T03:33:57.849Z,0.5
2018-02-13T03:34:59.076Z,0.51
2018-02-13T03:35:59.942Z,0.44
2018-02-13T03:37:01.269Z,0.53
2018-02-13T03:38:02.569Z,0.53
2018-02-13T03:39:02.904Z,0.5
2018-02-13T03:40:03.913Z,0.54
2018-02-13T03:41:05.574Z,0.53
2018-02-13T03:42:05.869Z,0.53
2018-02-13T03:43:07.972Z,0.31
2018-02-13T03:44:08.194Z,0.31
2018-02-13T03:45:09.935Z,0.15
2018-02-13T03:46:09.588Z,0.21
2018-02-13T03:47:12.248Z,0.19
2018-02-13T03:48:12.134Z,0.09
2018-02-13T03:49:12.241Z,0.38
2018-02-13T03:50:13.314Z,0.32
2018-02-13T03:51:14.375Z,0.35
2018-02-13T03:52:17.188Z,0.38
2018-02-13T03:53:16.841Z,0.34
2018-02-13T03:54:18.508Z,0.43
2018-02-13T03:55:19.698Z,0.47
2018-02-13T03:56:20.329Z,0.22
2018-02-13T03:57:22.548Z,0.29
2018-02-13T03:58:22.193Z,0.31
2018-02-13T03:59:22.610Z,0.26
2018-02-13T04:00:23.601Z,0.25
2018-02-13T04:01:26.060Z,0.26
2018-02-13T04:02:26.127Z,0.38
2018-02-13T04:03:28.430Z,0.47
2018-02-13T04:04:29.122Z,0.31
2018-02-13T04:05:29.438Z,0.26
2018-02-13T04:06:29.617Z,0.31
2018-02-13T04:07:31.255Z,0.23
2018-02-13T04:08:32.631Z,0.31
2018-02-13T04:09:33.601Z,0.21
2018-02-13T04:10:33.894Z,0.25
2018-02-13T04:11:35.509Z,0.21
2018-02-13T04:12:36.263Z,0.28
2018-02-13T04:13:37.354Z,0.38
2018-02-13T04:14:38.538Z,0.31
2018-02-13T04:15:39.215Z,0.41
2018-02-13T04:16:39.662Z,0.43
2018-02-13T04:17:41.705Z,0.34
2018-02-13T04:18:42.946Z,0.32
2018-02-13T04:19:43.282Z,0.34
2018-02-13T04:20:44.987Z,0.37
2018-02-13T04:21:45.152Z,0.38
2018-02-13T04:22:46.468Z,0.4
2018-02-13T04:23:47.497Z,0.43
2018-02-13T04:24:47.489Z,0.31
2018-02-13T04:25:49.340Z,0.28
2018-02-13T04:26:50.075Z,0.23
2018-02-13T04:27:50.876Z,0.19
2018-02-13T04:28:52.136Z,0.21
2018-02-13T04:29:52.613Z,0.26
2018-02-13T04:30:54.629Z,0.31
2018-02-13T04:31:55.400Z,0.15
2018-02-13T04:32:56.268Z,0.29
2018-02-13T04:33:57.158Z,0.26
2018-02-13T04:35:00.154Z,0.35
2018-02-13T04:35:59.204Z,0.38
2018-02-13T04:37:00.161Z,0.43
2018-02-13T04:38:01.722Z,0.26
2018-02-13T04:39:02.546Z,0.32
2018-02-13T04:40:03.494Z,0.41
2018-02-13T04:41:04.601Z,0.28
2018-02-13T04:42:05.613Z,0.25
2018-02-13T04:43:06.857Z,0.34
2018-02-13T04:44:07.434Z,0.37
2018-02-13T04:45:08.313Z,0.37
2018-02-13T04:46:08.552Z,0.32
2018-02-13T04:47:10.977Z,0.37
2018-02-13T04:48:11.573Z,0.41
2018-02-13T04:49:12.283Z,0.34
2018-02-13T04:50:13.333Z,0.28
2018-02-13T04:51:14.952Z,0.26
2018-02-13T04:52:16.038Z,0.31
2018-02-13T04:53:16.026Z,0.31
2018-02-13T04:54:17.346Z,0.21
2018-02-13T04:55:18.408Z,0.31
2018-02-13T04:56:18.717Z,0.34
2018-02-13T04:57:21.106Z,0.35
2018-02-13T04:58:21.759Z,0.31
2018-02-13T04:59:22.082Z,0.31
2018-02-13T05:00:22.450Z,0.26
2018-02-13T05:01:23.372Z,0.34
2018-02-13T05:02:24.402Z,0.26
2018-02-13T05:03:26.384Z,0.26
2018-02-13T05:04:27.744Z,0.28
2018-02-13T05:05:28.922Z,0.34
2018-02-13T05:06:29.868Z,0.26
2018-02-13T05:07:30.077Z,0.26
2018-02-13T05:08:32.244Z,0.32
2018-02-13T05:09:32.832Z,0.22
2018-02-13T05:10:34.310Z,0.31
2018-02-13T05:11:34.383Z,0.34
2018-02-13T05:12:34.932Z,0.26
2018-02-13T05:13:36.365Z,0.26
2018-02-13T05:14:36.831Z,0.31
2018-02-13T05:15:37.495Z,0.23
2018-02-13T05:16:39.846Z,0.31
2018-02-13T05:17:40.148Z,0.16
2018-02-13T05:18:41.651Z,0.31
2018-02-13T05:19:42.285Z,0.26
2018-02-13T05:20:44.126Z,0.34
2018-02-13T05:21:45.512Z,0.29
2018-02-13T05:22:45.993Z,0.26
2018-02-13T05:23:47.054Z,0.32
2018-02-13T05:24:47.336Z,0.31
2018-02-13T05:25:48.605Z,0.37
2018-02-13T05:26:51.182Z,0.21
2018-02-13T05:27:50.564Z,0.21
2018-02-13T05:28:50.916Z,0.47
2018-02-13T05:29:54.091Z,0.31
2018-02-13T05:30:52.747Z,0.34
2018-02-13T05:31:54.347Z,0.26
2018-02-13T05:32:54.584Z,0.32
2018-02-13T05:33:56.860Z,0.41
2018-02-13T05:34:57.242Z,0.41
2018-02-13T05:35:58.419Z,0.37
2018-02-13T05:36:59.524Z,0.35
2018-02-13T05:38:00.456Z,0.38
2018-02-13T05:39:01.277Z,0.38
2018-02-13T05:40:02.102Z,0.32
2018-02-13T05:41:03.037Z,0.43
2018-02-13T05:42:05.472Z,0.32
2018-02-13T05:43:05.083Z,0.38
2018-02-13T05:44:06.186Z,0.34
2018-02-13T05:45:07.432Z,0.38
2018-02-13T05:46:09.401Z,0.43
2018-02-13T05:47:08.680Z,0.38
2018-02-13T05:48:10.840Z,0.47
2018-02-13T05:49:10.789Z,0.38
2018-02-13T05:50:12.386Z,0.35
2018-02-13T05:51:12.347Z,0.44
2018-02-13T05:52:14.218Z,0.48
2018-02-13T05:53:15.086Z,0.43
2018-02-13T05:54:17.019Z,0.32
2018-02-13T05:55:17.211Z,0.34
2018-02-13T05:56:18.482Z,0.34
2018-02-13T05:57:19.793Z,0.35
2018-02-13T05:58:19.602Z,0.32
2018-02-13T05:59:21.657Z,0.38
2018-02-13T06:00:22.242Z,0.43
2018-02-13T06:01:24.041Z,0.4
2018-02-13T06:02:25.041Z,0.53
2018-02-13T06:03:24.269Z,0.54
2018-02-13T06:04:25.747Z,0.4
2018-02-13T06:05:27.021Z,0.44
2018-02-13T06:06:27.686Z,0.43
2018-02-13T06:07:28.635Z,0.37
2018-02-13T06:08:29.956Z,0.43
2018-02-13T06:09:32.952Z,0.34
2018-02-13T06:10:32.714Z,0.35
2018-02-13T06:11:33.083Z,0.38
2018-02-13T06:12:34.164Z,0.34
2018-02-13T06:13:34.604Z,0.38
2018-02-13T06:14:36.116Z,0.47
2018-02-13T06:15:37.374Z,0.38
2018-02-13T06:16:37.575Z,0.26
2018-02-13T06:17:40.653Z,0.35
2018-02-13T06:18:41.699Z,0.34
2018-02-13T06:19:42.970Z,0.43
2018-02-13T06:20:42.280Z,0.35
2018-02-13T06:21:43.610Z,0.26
2018-02-13T06:22:44.952Z,0.31
2018-02-13T06:23:44.985Z,0.31
2018-02-13T06:24:46.241Z,0.31
2018-02-13T06:25:47.162Z,0.31
2018-02-13T06:26:47.845Z,0.26
2018-02-13T06:27:48.805Z,0.34
2018-02-13T06:28:50.398Z,0.26
2018-02-13T06:29:51.186Z,0.35
2018-02-13T06:30:52.139Z,0.35
2018-02-13T06:31:53.212Z,0.34
2018-02-13T06:32:54.175Z,0.28
2018-02-13T06:33:56.050Z,0.34
2018-02-13T06:34:57.592Z,0.35
2018-02-13T06:35:58.071Z,0.37
2018-02-13T06:36:59.682Z,0.34
2018-02-13T06:38:00.729Z,0.31
2018-02-13T06:39:01.351Z,0.29
2018-02-13T06:40:02.543Z,0.26
2018-02-13T06:41:01.809Z,0.35
2018-02-13T06:42:02.818Z,0.35
2018-02-13T06:43:05.196Z,0.43
2018-02-13T06:44:05.367Z,0.38
2018-02-13T06:45:06.504Z,0.29
2018-02-13T06:46:07.235Z,0.34
2018-02-13T06:47:08.076Z,0.26
2018-02-13T06:48:11.287Z,0.37
2018-02-13T06:49:09.602Z,0.34
2018-02-13T06:50:11.526Z,0.35
2018-02-13T06:51:11.533Z,0.54
2018-02-13T06:52:12.519Z,0.54
2018-02-13T06:53:14.215Z,0.38
2018-02-13T06:54:16.106Z,0.41
2018-02-13T06:55:17.698Z,0.37
2018-02-13T06:56:16.810Z,0.34
2018-02-13T06:57:17.794Z,0.35
2018-02-13T06:58:18.848Z,0.35
2018-02-13T06:59:19.906Z,0.31
2018-02-13T07:00:21.116Z,0.34
2018-02-13T07:01:21.550Z,0.32
2018-02-13T07:02:22.496Z,0.35
2018-02-13T07:03:24.162Z,0.31
2018-02-13T07:04:25.773Z,0.26
2018-02-13T07:05:26.960Z,0.28
2018-02-13T07:06:27.739Z,0.38
2018-02-13T07:07:28.141Z,0.38
2018-02-13T07:08:30.674Z,0.26
2018-02-13T07:09:29.702Z,0.31
2018-02-13T07:10:31.032Z,0.22
2018-02-13T07:11:32.371Z,0.35
2018-02-13T07:12:34.084Z,0.34
2018-02-13T07:13:34.762Z,0.31
2018-02-13T07:14:34.374Z,0.31
2018-02-13T07:15:35.818Z,0.38
2018-02-13T07:16:36.517Z,0.44
2018-02-13T07:17:38.150Z,0.48
2018-02-13T07:18:39.010Z,0.43
2018-02-13T07:19:40.792Z,0.43
2018-02-13T07:20:42.104Z,0.47
2018-02-13T07:21:42.083Z,0.4
2018-02-13T07:22:43.964Z,0.44
2018-02-13T07:23:44.344Z,0.38
2018-02-13T07:24:44.603Z,0.43
2018-02-13T07:25:47.108Z,0.43
2018-02-13T07:26:47.886Z,0.38
2018-02-13T07:27:48.987Z,0.32
2018-02-13T07:28:48.284Z,0.31
2018-02-13T07:29:49.960Z,0.35
2018-02-13T07:30:51.247Z,0.43
2018-02-13T07:31:51.347Z,0.38
2018-02-13T07:32:55.688Z,0.43
2018-02-13T07:33:54.289Z,0.47
2018-02-13T07:34:55.462Z,0.45
2018-02-13T07:35:57.587Z,0.47
2018-02-13T07:36:58.410Z,0.38
2018-02-13T07:37:58.933Z,0.41
2018-02-13T07:39:00.899Z,0.56
2018-02-13T07:39:59.738Z,0.47
2018-02-13T07:41:01.010Z,0.48
2018-02-13T07:42:03.743Z,0.54
2018-02-13T07:43:03.345Z,0.5
2018-02-13T07:44:04.130Z,0.54
2018-02-13T07:45:05.815Z,0.54
2018-02-13T07:46:08.191Z,0.59
2018-02-13T07:47:06.959Z,0.45
2018-02-13T07:48:07.766Z,0.35
2018-02-13T07:49:09.110Z,0.35
2018-02-13T07:50:10.896Z,0.38
2018-02-13T07:51:11.297Z,0.21
2018-02-13T07:52:12.670Z,0.31
2018-02-13T07:53:13.115Z,0.26
2018-02-13T07:54:14.413Z,0.26
2018-02-13T07:55:16.827Z,0.21
2018-02-13T07:56:16.436Z,0.28
2018-02-13T07:57:18.068Z,0.22
2018-02-13T07:58:17.746Z,0.26
2018-02-13T07:59:19.127Z,0.23
2018-02-13T08:00:19.516Z,0.31
2018-02-13T08:01:20.658Z,0.44
2018-02-13T08:02:21.477Z,0.35
2018-02-13T08:03:22.779Z,0.35
2018-02-13T08:04:23.509Z,0.37
2018-02-13T08:05:26.026Z,0.43
2018-02-13T08:06:25.686Z,0.26
2018-02-13T08:07:28.016Z,0.29
2018-02-13T08:08:28.332Z,0.29
2018-02-13T08:09:29.011Z,0.22
2018-02-13T08:10:30.272Z,0.31
2018-02-13T08:11:30.632Z,0.29
2018-02-13T08:12:32.088Z,0.31
2018-02-13T08:13:33.098Z,0.29
2018-02-13T08:14:35.039Z,0.34
2018-02-13T08:15:35.080Z,0.47
2018-02-13T08:16:36.309Z,0.47
2018-02-13T08:17:37.381Z,0.38
2018-02-13T08:18:38.398Z,0.15
2018-02-13T08:19:39.489Z,0.19
2018-02-13T08:20:40.016Z,0.21
2018-02-13T08:21:40.982Z,0.15
2018-02-13T08:22:42.470Z,0.16
2018-02-13T08:23:43.014Z,0.21
2018-02-13T08:24:43.315Z,0.31
2018-02-13T08:25:44.377Z,0.26
2018-02-13T08:26:47.075Z,0.26
2018-02-13T08:27:46.285Z,0.31
2018-02-13T08:28:49.252Z,0.26
2018-02-13T08:29:49.741Z,0.41
2018-02-13T08:30:49.986Z,0.35
2018-02-13T08:31:51.310Z,0.25
2018-02-13T08:32:51.988Z,0.26
2018-02-13T08:33:53.039Z,0.31
2018-02-13T08:34:54.081Z,0.26
2018-02-13T08:35:54.763Z,0.23
2018-02-13T08:36:56.067Z,0.21
2018-02-13T08:37:59.913Z,0.23
2018-02-13T08:38:58.031Z,0.38
2018-02-13T08:39:59.224Z,0.41
2018-02-13T08:41:00.690Z,0.43
2018-02-13T08:42:01.459Z,0.43
2018-02-13T08:43:01.372Z,0.32
2018-02-13T08:44:03.565Z,0.43
2018-02-13T08:45:03.980Z,0.43
2018-02-13T08:46:05.872Z,0.26
2018-02-13T08:47:07.176Z,0.28
2018-02-13T08:48:07.431Z,0.37
2018-02-13T08:49:09.207Z,0.32
2018-02-13T08:50:09.301Z,0.38
2018-02-13T08:51:09.668Z,0.4
2018-02-13T08:52:11.726Z,0.48
2018-02-13T08:53:11.765Z,0.38
2018-02-13T08:54:12.794Z,0.35
2018-02-13T08:55:14.105Z,0.38
2018-02-13T08:56:15.035Z,0.4
2018-02-13T08:57:16.430Z,0.38
2018-02-13T08:58:17.110Z,0.38
2018-02-13T08:59:18.842Z,0.38
2018-02-13T09:00:19.709Z,0.31
2018-02-13T09:01:20.176Z,0.37
2018-02-13T09:02:22.038Z,0.31
2018-02-13T09:03:22.119Z,0.26
2018-02-13T09:04:22.722Z,0.35
2018-02-13T09:05:25.037Z,0.41
2018-02-13T09:06:24.800Z,0.31
2018-02-13T09:07:26.634Z,0.15
2018-02-13T09:08:27.362Z,0.23
2018-02-13T09:09:27.289Z,0.25
2018-02-13T09:10:29.735Z,0.31
2018-02-13T09:11:29.286Z,0.25
2018-02-13T09:12:31.927Z,0.23
2018-02-13T09:13:31.378Z,0.22
2018-02-13T09:14:32.600Z,0.16
2018-02-13T09:15:33.627Z,0.23
2018-02-13T09:16:34.583Z,0.25
2018-02-13T09:17:36.704Z,0.26
2018-02-13T09:18:36.253Z,0.29
2018-02-13T09:19:37.710Z,0.21
2018-02-13T09:20:38.992Z,0.31
2018-02-13T09:21:39.341Z,0.25
2018-02-13T09:22:42.682Z,0.29
2018-02-13T09:23:42.078Z,0.19
2018-02-13T09:24:43.693Z,0.23
2018-02-13T09:25:43.957Z,0.21
2018-02-13T09:26:45.402Z,0.16
2018-02-13T09:27:46.398Z,0.22
2018-02-13T09:28:47.262Z,0.15
2018-02-13T09:29:49.223Z,0.18
2018-02-13T09:30:50.024Z,0.19
2018-02-13T09:31:50.431Z,0.18
2018-02-13T09:32:51.237Z,0.23
2018-02-13T09:33:51.636Z,0.22
2018-02-13T09:34:53.312Z,0.15
2018-02-13T09:35:53.320Z,0.22
2018-02-13T09:36:55.174Z,0.22
2018-02-13T09:37:57.026Z,0.18
2018-02-13T09:38:56.894Z,0.15
2018-02-13T09:39:58.375Z,0.21
2018-02-13T09:41:00.399Z,0.12
2018-02-13T09:42:00.313Z,0.15
2018-02-13T09:43:03.498Z,0.21
2018-02-13T09:44:02.369Z,0.23
2018-02-13T09:45:03.336Z,0.22
2018-02-13T09:46:04.923Z,0.15
2018-02-13T09:47:05.955Z,0.13
2018-02-13T09:48:06.463Z,0.23
2018-02-13T09:49:08.788Z,0.23
2018-02-13T09:50:09.006Z,0.16
2018-02-13T09:51:09.970Z,0.25
2018-02-13T09:52:10.561Z,0.21
2018-02-13T09:53:12.173Z,0.29
2018-02-13T09:54:12.122Z,0.26
2018-02-13T09:55:14.374Z,0.22
2018-02-13T09:56:15.304Z,0.21
2018-02-13T09:57:15.556Z,0.28
2018-02-13T09:58:17.146Z,0.22
2018-02-13T09:59:18.017Z,0.31
2018-02-13T10:00:19.084Z,0.21
2018-02-13T10:01:18.927Z,0.26
2018-02-13T10:02:19.950Z,0.31
2018-02-13T10:03:21.579Z,0.26
2018-02-13T10:04:23.676Z,0.31
2018-02-13T10:05:23.232Z,0.34
2018-02-13T10:06:25.003Z,0.29
2018-02-13T10:07:25.504Z,0.26
2018-02-13T10:08:27.564Z,0.31
2018-02-13T10:09:26.954Z,0.28
2018-02-13T10:10:27.922Z,0.32
2018-02-13T10:11:29.656Z,0.29
2018-02-13T10:12:31.278Z,0.23
2018-02-13T10:13:32.701Z,0.26
2018-02-13T10:14:32.308Z,0.26
2018-02-13T10:15:33.912Z,0.29
2018-02-13T10:16:34.862Z,0.26
2018-02-13T10:17:35.486Z,0.26
2018-02-13T10:18:36.276Z,0.31
2018-02-13T10:19:37.962Z,0.38
2018-02-13T10:20:39.074Z,0.31
2018-02-13T10:21:40.755Z,0.32
2018-02-13T10:22:40.942Z,0.32
2018-02-13T10:23:42.278Z,0.32
2018-02-13T10:24:42.558Z,0.31
2018-02-13T10:25:42.877Z,0.41
2018-02-13T10:26:43.880Z,0.47
2018-02-13T10:27:46.047Z,0.43
2018-02-13T10:28:47.234Z,0.47
2018-02-13T10:29:49.020Z,0.37
2018-02-13T10:30:48.678Z,0.32
2018-02-13T10:31:50.213Z,0.29
2018-02-13T10:32:52.100Z,0.28
2018-02-13T10:33:52.260Z,0.29
2018-02-13T10:34:53.212Z,0.37
2018-02-13T10:35:54.856Z,0.43
2018-02-13T10:36:54.386Z,0.47
2018-02-13T10:37:55.897Z,0.38
2018-02-13T10:38:57.331Z,0.38
2018-02-13T10:39:57.888Z,0.38
2018-02-13T10:41:00.554Z,0.35
2018-02-13T10:42:00.787Z,0.29
2018-02-13T10:43:01.583Z,0.34
2018-02-13T10:44:01.941Z,0.43
2018-02-13T10:45:02.642Z,0.32
2018-02-13T10:46:04.895Z,0.37
2018-02-13T10:47:04.692Z,0.32
2018-02-13T10:48:06.274Z,0.38
2018-02-13T10:49:07.932Z,0.48
2018-02-13T10:50:07.240Z,0.43
2018-02-13T10:51:09.017Z,0.38
2018-02-13T10:52:09.370Z,0.38
2018-02-13T10:53:10.224Z,0.47
2018-02-13T10:54:13.380Z,0.32
2018-02-13T10:55:13.912Z,0.4
2018-02-13T10:56:14.738Z,0.32
2018-02-13T10:57:16.385Z,0.45
2018-02-13T10:58:17.315Z,0.38
2018-02-13T10:59:18.904Z,0.37
2018-02-13T11:00:18.300Z,0.32
2018-02-13T11:01:18.976Z,0.34
2018-02-13T11:02:20.206Z,0.32
2018-02-13T11:03:22.194Z,0.34
2018-02-13T11:04:23.243Z,0.32
2018-02-13T11:05:23.219Z,0.28
2018-02-13T11:06:25.002Z,0.28
2018-02-13T11:07:25.286Z,0.34
2018-02-13T11:08:26.905Z,0.47
2018-02-13T11:09:28.590Z,0.32
2018-02-13T11:10:28.696Z,0.38
2018-02-13T11:11:29.204Z,0.38
2018-02-13T11:12:30.309Z,0.38
2018-02-13T11:13:31.002Z,0.38
2018-02-13T11:14:32.549Z,0.37
2018-02-13T11:15:33.295Z,0.26
2018-02-13T11:16:33.962Z,0.21
2018-02-13T11:17:35.130Z,0.23
2018-02-13T11:18:36.360Z,0.31
2018-02-13T11:19:37.999Z,0.31
2018-02-13T11:20:38.183Z,0.21
2018-02-13T11:21:39.917Z,0.31
2018-02-13T11:22:40.846Z,0.31
2018-02-13T11:23:42.666Z,0.31
2018-02-13T11:24:42.311Z,0.31
2018-02-13T11:25:44.288Z,0.35
2018-02-13T11:26:44.965Z,0.28
2018-02-13T11:27:45.744Z,0.31
2018-02-13T11:28:47.266Z,0.29
2018-02-13T11:29:47.693Z,0.29
2018-02-13T11:30:49.037Z,0.21
2018-02-13T11:31:48.673Z,0.16
2018-02-13T11:32:49.949Z,0.18
2018-02-13T11:33:51.292Z,0.31
2018-02-13T11:34:53.046Z,0.31
2018-02-13T11:35:53.009Z,0.32
2018-02-13T11:36:53.874Z,0.23
2018-02-13T11:37:55.714Z,0.21
2018-02-13T11:38:55.208Z,0.28
2018-02-13T11:39:57.022Z,0.25
2018-02-13T11:40:57.540Z,0.21
2018-02-13T11:41:58.523Z,0.25
2018-02-13T11:43:00.196Z,0.15
2018-02-13T11:44:01.132Z,0.26
2018-02-13T11:45:03.190Z,0.31
2018-02-13T11:46:04.151Z,0.26
2018-02-13T11:47:04.874Z,0.22
2018-02-13T11:48:06.098Z,0.21
2018-02-13T11:49:06.573Z,0.31
2018-02-13T11:50:08.274Z,0.26
2018-02-13T11:51:08.288Z,0.31
2018-02-13T11:52:09.527Z,0.31
2018-02-13T11:53:09.871Z,0.29
2018-02-13T11:54:11.394Z,0.26
2018-02-13T11:55:12.610Z,0.31
2018-02-13T11:56:13.742Z,0.26
2018-02-13T11:57:15.214Z,0.26
2018-02-13T11:58:15.400Z,0.47
2018-02-13T11:59:16.366Z,0.43
2018-02-13T12:00:17.558Z,0.35
2018-02-13T12:01:18.287Z,0.23
2018-02-13T12:02:19.918Z,0.31
2018-02-13T12:03:21.797Z,0.19
2018-02-13T12:04:21.874Z,0.25
2018-02-13T12:05:22.676Z,0.25
2018-02-13T12:06:23.719Z,0.16
2018-02-13T12:07:26.294Z,0.25
2018-02-13T12:08:25.990Z,0.21
2018-02-13T12:09:26.273Z,0.19
2018-02-13T12:10:27.630Z,0.31
2018-02-13T12:11:28.558Z,0.29
2018-02-13T12:12:29.339Z,0.31
2018-02-13T12:13:29.923Z,0.18
2018-02-13T12:14:30.876Z,0.18
2018-02-13T12:15:33.410Z,0.19
2018-02-13T12:16:33.966Z,0.18
2018-02-13T12:17:33.472Z,0.23
2018-02-13T12:18:35.012Z,0.23
2018-02-13T12:19:36.970Z,0.25
2018-02-13T12:20:37.913Z,0.13
2018-02-13T12:21:39.470Z,0.19
2018-02-13T12:22:39.895Z,0.15
2018-02-13T12:23:40.747Z,0.18
2018-02-13T12:24:41.529Z,0.12
2018-02-13T12:25:42.760Z,0.29
2018-02-13T12:26:42.979Z,0.16
2018-02-13T12:27:44.668Z,0.29
2018-02-13T12:28:46.101Z,0.16
2018-02-13T12:29:45.472Z,0.31
2018-02-13T12:30:47.163Z,0.22
2018-02-13T12:31:48.283Z,0.25
2018-02-13T12:32:49.094Z,0.31
2018-02-13T12:33:49.771Z,0.37
2018-02-13T12:34:51.129Z,0.31
2018-02-13T12:35:57.202Z,0.04
2018-02-13T12:36:53.729Z,0.12
2018-02-13T12:37:55.403Z,0.1
2018-02-13T12:38:55.854Z,0.13
2018-02-13T12:39:56.725Z,0.15
2018-02-13T12:40:57.270Z,0.19
2018-02-13T12:41:57.758Z,0.19
2018-02-13T12:42:59.276Z,0.22
2018-02-13T12:43:59.926Z,0.12
2018-02-13T12:45:00.569Z,0.13
2018-02-13T12:46:02.552Z,0.15
2018-02-13T12:47:03.018Z,0.21
2018-02-13T12:48:04.187Z,0.31
2018-02-13T12:49:06.130Z,0.16
2018-02-13T12:50:07.084Z,0.15
2018-02-13T12:51:07.580Z,0.19
2018-02-13T12:52:11.543Z,0.16
2018-02-13T12:53:09.844Z,0.22
2018-02-13T12:54:11.178Z,0.25
2018-02-13T12:55:12.209Z,0.31
2018-02-13T12:56:12.817Z,0.16
2018-02-13T12:57:13.460Z,0.25
2018-02-13T12:58:14.938Z,0.28
2018-02-13T12:59:14.497Z,0.29
2018-02-13T13:00:16.348Z,0.31
2018-02-13T13:01:17.026Z,0.29
2018-02-13T13:02:17.893Z,0.15
2018-02-13T13:03:18.624Z,0.25
2018-02-13T13:04:20.440Z,0.09
2018-02-13T13:05:21.446Z,0.22
2018-02-13T13:06:22.502Z,0.15
2018-02-13T13:07:24.714Z,0.15
2018-02-13T13:08:24.358Z,0.16
2018-02-13T13:09:25.125Z,0.19
2018-02-13T13:10:26.527Z,0.25
2018-02-13T13:11:27.848Z,0.23
2018-02-13T13:12:29.091Z,0.25
2018-02-13T13:13:32.044Z,0.22
2018-02-13T13:14:31.954Z,0.29
2018-02-13T13:15:33.509Z,0.22
2018-02-13T13:16:32.049Z,0.23
2018-02-13T13:17:33.927Z,0.19
2018-02-13T13:18:33.355Z,0.19
2018-02-13T13:19:35.027Z,0.15
2018-02-13T13:20:36.491Z,0.15
2018-02-13T13:21:38.055Z,0.23
2018-02-13T13:22:38.343Z,0.15
2018-02-13T13:23:39.487Z,0.26
2018-02-13T13:24:40.013Z,0.16
2018-02-13T13:25:42.005Z,0.21
2018-02-13T13:26:42.382Z,0.23
2018-02-13T13:27:42.601Z,0.23
2018-02-13T13:28:44.912Z,0.25
2018-02-13T13:29:46.630Z,0.22
2018-02-13T13:30:46.542Z,0.22
2018-02-13T13:31:48.240Z,0.26
2018-02-13T13:32:48.904Z,0.31